sensor_id;sensor_type;location;lat;lon;timestamp;pressure;altitude;pressure_sealevel;temperature;humidity
64019;BME280;66942;52.138;5.216;2023-04-01T00:01:25;99065.0;;;16.2;62.18
64019;BME280;66942;52.138;5.216;2023-04-01T00:04:38;99065.0;;;15.87;63.04
64019;BME280;66942;52.138;5.216;2023-04-01T00:06:16;99061.0;;;16.12;62.31
64019;BME280;66942;52.138;5.216;2023-04-01T00:07:53;99065.0;;;16.11;62.18
64019;BME280;66942;52.138;5.216;2023-04-01T00:09:29;99067.0;;;16.09;62.24
64019;BME280;66942;52.138;5.216;2023-04-01T00:12:42;99072.0;;;15.88;62.64
64019;BME280;66942;52.138;5.216;2023-04-01T00:14:19;99066.0;;;16.07;62.21
64019;BME280;66942;52.138;5.216;2023-04-01T00:15:55;99069.0;;;15.62;63.25
64019;BME280;66942;52.138;5.216;2023-04-01T00:19:08;99069.0;;;16.09;62.02
64019;BME280;66942;52.138;5.216;2023-04-01T00:20:45;99071.0;;;16.09;61.95
64019;BME280;66942;52.138;5.216;2023-04-01T00:22:23;99071.0;;;15.9;62.38
64019;BME280;66942;52.138;5.216;2023-04-01T00:25:35;99069.0;;;15.87;62.37
64019;BME280;66942;52.138;5.216;2023-04-01T00:27:12;99067.0;;;15.7;62.84
64019;BME280;66942;52.138;5.216;2023-04-01T00:28:48;99073.0;;;15.95;62.15
64019;BME280;66942;52.138;5.216;2023-04-01T00:30:25;99069.0;;;15.98;62.16
64019;BME280;66942;52.138;5.216;2023-04-01T00:33:38;99068.0;;;16.07;61.7
64019;BME280;66942;52.138;5.216;2023-04-01T00:35:14;99074.0;;;15.98;61.88
64019;BME280;66942;52.138;5.216;2023-04-01T00:36:52;99077.0;;;16.06;61.83
64019;BME280;66942;52.138;5.216;2023-04-01T00:40:07;99073.0;;;15.83;62.34
64019;BME280;66942;52.138;5.216;2023-04-01T00:42:01;99077.0;;;16.03;61.84
64019;BME280;66942;52.138;5.216;2023-04-01T00:43:39;99075.0;;;15.92;62.01
64019;BME280;66942;52.138;5.216;2023-04-01T00:45:28;99071.0;;;15.65;62.81
64019;BME280;66942;52.138;5.216;2023-04-01T00:48:43;99074.0;;;15.65;62.7
64019;BME280;66942;52.138;5.216;2023-04-01T00:50:22;99075.0;;;15.85;62.14
64019;BME280;66942;52.138;5.216;2023-04-01T00:52:02;99082.0;;;15.87;62.2
64019;BME280;66942;52.138;5.216;2023-04-01T00:53:42;99075.0;;;15.77;62.39
64019;BME280;66942;52.138;5.216;2023-04-01T00:57:01;99080.0;;;15.91;62.07
64019;BME280;66942;52.138;5.216;2023-04-01T00:58:42;99082.0;;;15.89;62.18
64019;BME280;66942;52.138;5.216;2023-04-01T01:00:20;99080.0;;;15.94;61.97
64019;BME280;66942;52.138;5.216;2023-04-01T01:01:56;99086.0;;;15.79;62.31
64019;BME280;66942;52.138;5.216;2023-04-01T01:05:11;99088.0;;;15.87;62.09
64019;BME280;66942;52.138;5.216;2023-04-01T01:06:53;99088.0;;;15.83;62.12
64019;BME280;66942;52.138;5.216;2023-04-01T01:08:43;99086.0;;;15.8;62.25
64019;BME280;66942;52.138;5.216;2023-04-01T01:10:39;99086.0;;;15.6;62.74
64019;BME280;66942;52.138;5.216;2023-04-01T01:12:18;99090.0;;;15.53;62.84
64019;BME280;66942;52.138;5.216;2023-04-01T01:15:44;99090.0;;;15.62;62.64
64019;BME280;66942;52.138;5.216;2023-04-01T01:17:30;99092.0;;;15.59;62.46
64019;BME280;66942;52.138;5.216;2023-04-01T01:19:31;99094.0;;;15.55;62.7
64019;BME280;66942;52.138;5.216;2023-04-01T01:21:58;99094.0;;;15.45;62.54
64019;BME280;66942;52.138;5.216;2023-04-01T01:26:32;99096.0;;;15.69;62.21
64019;BME280;66942;52.138;5.216;2023-04-01T01:28:44;99093.0;;;15.62;62.53
64019;BME280;66942;52.138;5.216;2023-04-01T01:30:37;99094.0;;;15.55;62.58
64019;BME280;66942;52.138;5.216;2023-04-01T01:32:30;99092.0;;;15.57;62.53
64019;BME280;66942;52.138;5.216;2023-04-01T01:35:19;99092.0;;;15.36;63.04
64019;BME280;66942;52.138;5.216;2023-04-01T01:37:01;99097.0;;;15.49;62.68
64019;BME280;66942;52.138;5.216;2023-04-01T01:38:42;99095.0;;;15.45;62.62
64019;BME280;66942;52.138;5.216;2023-04-01T01:40:19;99097.0;;;15.49;62.38
64019;BME280;66942;52.138;5.216;2023-04-01T01:41:57;99099.0;;;15.65;62.2
64019;BME280;66942;52.138;5.216;2023-04-01T01:43:39;99095.0;;;15.51;62.46
64019;BME280;66942;52.138;5.216;2023-04-01T01:46:57;99098.0;;;15.57;62.28
64019;BME280;66942;52.138;5.216;2023-04-01T01:48:35;99099.0;;;15.52;62.41
64019;BME280;66942;52.138;5.216;2023-04-01T01:50:14;99095.0;;;15.4;62.55
64019;BME280;66942;52.138;5.216;2023-04-01T01:53:28;99098.0;;;15.57;62.17
64019;BME280;66942;52.138;5.216;2023-04-01T01:55:24;99098.0;;;15.39;62.57
64019;BME280;66942;52.138;5.216;2023-04-01T01:57:04;99101.0;;;15.52;62.3
64019;BME280;66942;52.138;5.216;2023-04-01T01:58:44;99102.0;;;15.48;62.43
64019;BME280;66942;52.138;5.216;2023-04-01T02:00:22;99101.0;;;15.39;62.74
64019;BME280;66942;52.138;5.216;2023-04-01T02:03:37;99098.0;;;15.39;62.7
64019;BME280;66942;52.138;5.216;2023-04-01T02:05:17;99105.0;;;15.39;62.52
64019;BME280;66942;52.138;5.216;2023-04-01T02:06:58;99101.0;;;15.28;62.86
64019;BME280;66942;52.138;5.216;2023-04-01T02:10:19;99108.0;;;15.45;62.36
64019;BME280;66942;52.138;5.216;2023-04-01T02:12:01;99108.0;;;15.52;62.09
64019;BME280;66942;52.138;5.216;2023-04-01T02:13:43;99108.0;;;15.26;62.79
64019;BME280;66942;52.138;5.216;2023-04-01T02:15:24;99116.0;;;15.58;62.06
64019;BME280;66942;52.138;5.216;2023-04-01T02:18:45;99117.0;;;15.62;61.89
64019;BME280;66942;52.138;5.216;2023-04-01T02:20:25;99117.0;;;15.35;62.62
64019;BME280;66942;52.138;5.216;2023-04-01T02:22:06;99117.0;;;15.47;62.31
64019;BME280;66942;52.138;5.216;2023-04-01T02:23:46;99121.0;;;15.55;62.05
64019;BME280;66942;52.138;5.216;2023-04-01T02:27:03;99117.0;;;15.36;62.45
64019;BME280;66942;52.138;5.216;2023-04-01T02:28:41;99124.0;;;15.4;62.51
64019;BME280;66942;52.138;5.216;2023-04-01T02:30:19;99124.0;;;15.24;62.76
64019;BME280;66942;52.138;5.216;2023-04-01T02:31:56;99121.0;;;15.31;62.67
64019;BME280;66942;52.138;5.216;2023-04-01T02:35:13;99130.0;;;15.4;62.37
64019;BME280;66942;52.138;5.216;2023-04-01T02:36:50;99125.0;;;15.26;62.81
64019;BME280;66942;52.138;5.216;2023-04-01T02:38:26;99131.0;;;15.22;63.01
64019;BME280;66942;52.138;5.216;2023-04-01T02:41:44;99124.0;;;15.18;63.0
64019;BME280;66942;52.138;5.216;2023-04-01T02:43:21;99128.0;;;15.36;62.54
64019;BME280;66942;52.138;5.216;2023-04-01T02:44:57;99125.0;;;15.25;62.67
64019;BME280;66942;52.138;5.216;2023-04-01T02:46:33;99127.0;;;15.24;62.78
64019;BME280;66942;52.138;5.216;2023-04-01T02:49:45;99132.0;;;15.33;62.61
64019;BME280;66942;52.138;5.216;2023-04-01T02:51:21;99132.0;;;15.24;62.95
64019;BME280;66942;52.138;5.216;2023-04-01T02:52:58;99138.0;;;15.29;62.79
64019;BME280;66942;52.138;5.216;2023-04-01T02:56:11;99137.0;;;15.32;62.56
64019;BME280;66942;52.138;5.216;2023-04-01T02:57:48;99138.0;;;15.42;62.28
64019;BME280;66942;52.138;5.216;2023-04-01T02:59:24;99140.0;;;15.4;62.45
64019;BME280;66942;52.138;5.216;2023-04-01T03:01:00;99143.0;;;15.33;62.66
64019;BME280;66942;52.138;5.216;2023-04-01T03:04:13;99147.0;;;15.51;62.16
64019;BME280;66942;52.138;5.216;2023-04-01T03:05:49;99149.0;;;15.42;62.36
64019;BME280;66942;52.138;5.216;2023-04-01T03:07:25;99150.0;;;15.3;62.55
64019;BME280;66942;52.138;5.216;2023-04-01T03:10:38;99156.0;;;15.48;62.29
64019;BME280;66942;52.138;5.216;2023-04-01T03:12:14;99156.0;;;15.35;62.74
64019;BME280;66942;52.138;5.216;2023-04-01T03:13:50;99159.0;;;15.52;62.25
64019;BME280;66942;52.138;5.216;2023-04-01T03:17:02;99160.0;;;15.42;62.59
64019;BME280;66942;52.138;5.216;2023-04-01T03:18:38;99164.0;;;15.28;63.04
64019;BME280;66942;52.138;5.216;2023-04-01T03:20:15;99166.0;;;15.39;62.72
64019;BME280;66942;52.138;5.216;2023-04-01T03:23:28;99175.0;;;15.27;62.93
64019;BME280;66942;52.138;5.216;2023-04-01T03:25:05;99174.0;;;15.23;63.23
64019;BME280;66942;52.138;5.216;2023-04-01T03:26:42;99180.0;;;15.25;63.28
64019;BME280;66942;52.138;5.216;2023-04-01T03:28:18;99177.0;;;15.4;62.84
64019;BME280;66942;52.138;5.216;2023-04-01T03:31:30;99180.0;;;15.4;62.87
64019;BME280;66942;52.138;5.216;2023-04-01T03:33:07;99182.0;;;15.42;62.88
64019;BME280;66942;52.138;5.216;2023-04-01T03:34:43;99186.0;;;15.32;62.99
64019;BME280;66942;52.138;5.216;2023-04-01T03:37:55;99188.0;;;15.41;62.85
64019;BME280;66942;52.138;5.216;2023-04-01T03:39:31;99191.0;;;15.43;63.01
64019;BME280;66942;52.138;5.216;2023-04-01T03:41:11;99194.0;;;15.4;63.04
64019;BME280;66942;52.138;5.216;2023-04-01T03:44:24;99195.0;;;15.47;62.91
64019;BME280;66942;52.138;5.216;2023-04-01T03:46:01;99194.0;;;15.48;62.9
64019;BME280;66942;52.138;5.216;2023-04-01T03:47:37;99199.0;;;15.51;62.8
64019;BME280;66942;52.138;5.216;2023-04-01T03:49:13;99199.0;;;15.49;62.83
64019;BME280;66942;52.138;5.216;2023-04-01T03:52:25;99203.0;;;15.41;63.24
64019;BME280;66942;52.138;5.216;2023-04-01T03:54:01;99206.0;;;15.22;63.91
64019;BME280;66942;52.138;5.216;2023-04-01T03:55:38;99207.0;;;15.36;63.49
64019;BME280;66942;52.138;5.216;2023-04-01T03:58:51;99213.0;;;15.35;63.41
64019;BME280;66942;52.138;5.216;2023-04-01T04:00:27;99214.0;;;15.52;63.21
64019;BME280;66942;52.138;5.216;2023-04-01T04:02:04;99215.0;;;15.6;62.9
64019;BME280;66942;52.138;5.216;2023-04-01T04:05:16;99217.0;;;15.44;63.31
64019;BME280;66942;52.138;5.216;2023-04-01T04:06:52;99219.0;;;15.35;63.7
64019;BME280;66942;52.138;5.216;2023-04-01T04:08:29;99224.0;;;15.27;63.64
64019;BME280;66942;52.138;5.216;2023-04-01T04:10:06;99230.0;;;15.63;63.07
64019;BME280;66942;52.138;5.216;2023-04-01T04:13:19;99236.0;;;15.08;64.55
64019;BME280;66942;52.138;5.216;2023-04-01T04:14:55;99236.0;;;15.52;63.64
64019;BME280;66942;52.138;5.216;2023-04-01T04:16:34;99237.0;;;15.17;64.7
64019;BME280;66942;52.138;5.216;2023-04-01T04:19:47;99238.0;;;15.06;65.19
64019;BME280;66942;52.138;5.216;2023-04-01T04:21:23;99243.0;;;15.54;63.74
64019;BME280;66942;52.138;5.216;2023-04-01T04:23:00;99243.0;;;15.46;63.71
64019;BME280;66942;52.138;5.216;2023-04-01T04:26:14;99251.0;;;15.5;63.88
64019;BME280;66942;52.138;5.216;2023-04-01T04:27:51;99258.0;;;15.45;63.8
64019;BME280;66942;52.138;5.216;2023-04-01T04:29:27;99256.0;;;15.29;64.47
64019;BME280;66942;52.138;5.216;2023-04-01T04:31:03;99266.0;;;15.72;63.18
64019;BME280;66942;52.138;5.216;2023-04-01T04:34:16;99268.0;;;15.76;63.04
64019;BME280;66942;52.138;5.216;2023-04-01T04:35:55;99271.0;;;15.48;63.71
64019;BME280;66942;52.138;5.216;2023-04-01T04:37:31;99278.0;;;15.3;63.99
64019;BME280;66942;52.138;5.216;2023-04-01T04:40:44;99280.0;;;15.57;63.32
64019;BME280;66942;52.138;5.216;2023-04-01T04:42:21;99281.0;;;15.67;63.18
64019;BME280;66942;52.138;5.216;2023-04-01T04:43:57;99283.0;;;15.48;63.46
64019;BME280;66942;52.138;5.216;2023-04-01T04:47:09;99290.0;;;15.02;64.91
64019;BME280;66942;52.138;5.216;2023-04-01T04:48:45;99293.0;;;15.6;63.47
64019;BME280;66942;52.138;5.216;2023-04-01T04:50:22;99289.0;;;15.53;63.65
64019;BME280;66942;52.138;5.216;2023-04-01T04:51:59;99301.0;;;15.59;63.51
64019;BME280;66942;52.138;5.216;2023-04-01T04:55:12;99311.0;;;15.47;63.65
64019;BME280;66942;52.138;5.216;2023-04-01T04:56:48;99316.0;;;15.41;64.0
64019;BME280;66942;52.138;5.216;2023-04-01T04:58:27;99317.0;;;15.6;63.34
64019;BME280;66942;52.138;5.216;2023-04-01T05:01:41;99317.0;;;15.76;62.88
64019;BME280;66942;52.138;5.216;2023-04-01T05:03:17;99328.0;;;15.6;63.3
64019;BME280;66942;52.138;5.216;2023-04-01T05:04:53;99328.0;;;15.8;62.85
64019;BME280;66942;52.138;5.216;2023-04-01T05:08:05;99330.0;;;15.79;62.72
64019;BME280;66942;52.138;5.216;2023-04-01T05:09:42;99331.0;;;15.8;62.77
64019;BME280;66942;52.138;5.216;2023-04-01T05:11:19;99334.0;;;15.76;62.7
64019;BME280;66942;52.138;5.216;2023-04-01T05:12:55;99340.0;;;16.02;62.26
64019;BME280;66942;52.138;5.216;2023-04-01T05:16:08;99339.0;;;15.89;62.66
64019;BME280;66942;52.138;5.216;2023-04-01T05:17:44;99344.0;;;15.88;62.7
64019;BME280;66942;52.138;5.216;2023-04-01T05:19:20;99349.0;;;15.74;62.87
64019;BME280;66942;52.138;5.216;2023-04-01T05:22:32;99352.0;;;15.8;62.81
64019;BME280;66942;52.138;5.216;2023-04-01T05:24:08;99356.0;;;15.68;63.24
64019;BME280;66942;52.138;5.216;2023-04-01T05:25:44;99356.0;;;15.87;62.75
64019;BME280;66942;52.138;5.216;2023-04-01T05:28:56;99358.0;;;15.72;62.96
64019;BME280;66942;52.138;5.216;2023-04-01T05:30:31;99366.0;;;15.85;62.74
64019;BME280;66942;52.138;5.216;2023-04-01T05:32:07;99368.0;;;15.98;62.39
64019;BME280;66942;52.138;5.216;2023-04-01T05:33:43;99370.0;;;15.77;62.7
64019;BME280;66942;52.138;5.216;2023-04-01T05:36:56;99377.0;;;15.81;62.74
64019;BME280;66942;52.138;5.216;2023-04-01T05:38:32;99381.0;;;16.02;62.24
64019;BME280;66942;52.138;5.216;2023-04-01T05:40:09;99382.0;;;15.94;62.33
64019;BME280;66942;52.138;5.216;2023-04-01T05:43:21;99394.0;;;15.99;62.06
64019;BME280;66942;52.138;5.216;2023-04-01T05:44:57;99391.0;;;15.93;62.49
64019;BME280;66942;52.138;5.216;2023-04-01T05:46:33;99394.0;;;16.11;62.02
64019;BME280;66942;52.138;5.216;2023-04-01T05:49:45;99398.0;;;15.79;62.79
64019;BME280;66942;52.138;5.216;2023-04-01T05:51:22;99401.0;;;15.98;62.34
64019;BME280;66942;52.138;5.216;2023-04-01T05:52:59;99399.0;;;15.88;62.63
64019;BME280;66942;52.138;5.216;2023-04-01T05:56:11;99401.0;;;15.94;62.47
64019;BME280;66942;52.138;5.216;2023-04-01T05:57:47;99401.0;;;15.49;63.79
64019;BME280;66942;52.138;5.216;2023-04-01T05:59:23;99402.0;;;15.67;63.16
64019;BME280;66942;52.138;5.216;2023-04-01T06:01:00;99405.0;;;15.7;62.89
64019;BME280;66942;52.138;5.216;2023-04-01T06:04:15;99406.0;;;15.74;62.92
64019;BME280;66942;52.138;5.216;2023-04-01T06:05:52;99409.0;;;15.72;63.12
64019;BME280;66942;52.138;5.216;2023-04-01T06:07:28;99416.0;;;15.7;63.16
64019;BME280;66942;52.138;5.216;2023-04-01T06:10:57;99421.0;;;15.41;63.74
64019;BME280;66942;52.138;5.216;2023-04-01T06:13:00;99422.0;;;15.76;63.09
64019;BME280;66942;52.138;5.216;2023-04-01T06:14:46;99427.0;;;15.82;62.96
64019;BME280;66942;52.138;5.216;2023-04-01T06:16:35;99428.0;;;15.88;62.76
64019;BME280;66942;52.138;5.216;2023-04-01T06:18:30;99434.0;;;15.57;63.3
64019;BME280;66942;52.138;5.216;2023-04-01T06:21:21;99432.0;;;15.91;62.77
64019;BME280;66942;52.138;5.216;2023-04-01T06:23:10;99435.0;;;15.85;62.9
64019;BME280;66942;52.138;5.216;2023-04-01T06:25:25;99437.0;;;15.95;62.77
64019;BME280;66942;52.138;5.216;2023-04-01T06:27:16;99444.0;;;16.0;62.39
64019;BME280;66942;52.138;5.216;2023-04-01T06:29:06;99449.0;;;16.03;62.41
64019;BME280;66942;52.138;5.216;2023-04-01T06:31:10;99448.0;;;16.0;62.4
64019;BME280;66942;52.138;5.216;2023-04-01T06:33:06;99455.0;;;15.97;62.49
64019;BME280;66942;52.138;5.216;2023-04-01T06:35:54;99459.0;;;15.92;62.79
64019;BME280;66942;52.138;5.216;2023-04-01T06:38:13;99466.0;;;15.67;63.47
64019;BME280;66942;52.138;5.216;2023-04-01T06:41:38;99480.0;;;15.81;63.12
64019;BME280;66942;52.138;5.216;2023-04-01T06:44:16;99481.0;;;15.75;63.07
64019;BME280;66942;52.138;5.216;2023-04-01T06:46:05;99486.0;;;15.98;62.56
64019;BME280;66942;52.138;5.216;2023-04-01T06:47:55;99489.0;;;15.84;62.96
64019;BME280;66942;52.138;5.216;2023-04-01T06:49:48;99487.0;;;15.51;63.39
64019;BME280;66942;52.138;5.216;2023-04-01T06:51:35;99493.0;;;16.03;62.72
64019;BME280;66942;52.138;5.216;2023-04-01T06:53:24;99498.0;;;15.92;62.96
64019;BME280;66942;52.138;5.216;2023-04-01T06:57:05;99505.0;;;16.0;62.68
64019;BME280;66942;52.138;5.216;2023-04-01T06:58:58;99507.0;;;16.07;62.7
64019;BME280;66942;52.138;5.216;2023-04-01T07:00:40;99510.0;;;16.02;62.53
64019;BME280;66942;52.138;5.216;2023-04-01T07:02:25;99509.0;;;16.0;62.68
64019;BME280;66942;52.138;5.216;2023-04-01T07:04:09;99514.0;;;16.14;62.37
64019;BME280;66942;52.138;5.216;2023-04-01T07:05:49;99513.0;;;16.02;62.73
64019;BME280;66942;52.138;5.216;2023-04-01T07:09:14;99517.0;;;16.2;62.25
64019;BME280;66942;52.138;5.216;2023-04-01T07:10:55;99522.0;;;16.09;62.2
64019;BME280;66942;52.138;5.216;2023-04-01T07:12:40;99523.0;;;16.06;62.63
64019;BME280;66942;52.138;5.216;2023-04-01T07:14:21;99524.0;;;16.11;62.45
64019;BME280;66942;52.138;5.216;2023-04-01T07:17:52;99528.0;;;16.03;62.6
64019;BME280;66942;52.138;5.216;2023-04-01T07:19:36;99535.0;;;15.88;62.98
64019;BME280;66942;52.138;5.216;2023-04-01T07:21:23;99535.0;;;16.02;62.67
64019;BME280;66942;52.138;5.216;2023-04-01T07:23:03;99545.0;;;16.04;62.58
64019;BME280;66942;52.138;5.216;2023-04-01T07:24:43;99542.0;;;15.99;62.95
64019;BME280;66942;52.138;5.216;2023-04-01T07:28:02;99552.0;;;16.07;62.65
64019;BME280;66942;52.138;5.216;2023-04-01T07:29:40;99555.0;;;15.81;63.14
64019;BME280;66942;52.138;5.216;2023-04-01T07:31:25;99556.0;;;15.98;62.46
64019;BME280;66942;52.138;5.216;2023-04-01T07:33:13;99557.0;;;16.03;62.65
64019;BME280;66942;52.138;5.216;2023-04-01T07:36:53;99561.0;;;16.27;62.16
64019;BME280;66942;52.138;5.216;2023-04-01T07:38:41;99563.0;;;16.3;62.16
64019;BME280;66942;52.138;5.216;2023-04-01T07:40:30;99566.0;;;16.16;62.49
64019;BME280;66942;52.138;5.216;2023-04-01T07:42:18;99569.0;;;16.12;62.57
64019;BME280;66942;52.138;5.216;2023-04-01T07:44:07;99572.0;;;16.22;62.62
64019;BME280;66942;52.138;5.216;2023-04-01T07:46:00;99574.0;;;16.2;62.43
64019;BME280;66942;52.138;5.216;2023-04-01T07:47:48;99577.0;;;16.07;62.68
64019;BME280;66942;52.138;5.216;2023-04-01T07:51:24;99577.0;;;16.34;62.1
64019;BME280;66942;52.138;5.216;2023-04-01T07:53:10;99578.0;;;16.39;61.95
64019;BME280;66942;52.138;5.216;2023-04-01T07:54:56;99586.0;;;16.41;61.97
64019;BME280;66942;52.138;5.216;2023-04-01T07:56:40;99586.0;;;16.14;62.56
64019;BME280;66942;52.138;5.216;2023-04-01T07:58:27;99592.0;;;16.11;62.96
64019;BME280;66942;52.138;5.216;2023-04-01T08:00:13;99596.0;;;16.11;62.65
64019;BME280;66942;52.138;5.216;2023-04-01T08:03:56;99601.0;;;16.25;62.47
64019;BME280;66942;52.138;5.216;2023-04-01T08:05:53;99605.0;;;16.25;62.61
64019;BME280;66942;52.138;5.216;2023-04-01T08:07:36;99606.0;;;16.2;62.72
64019;BME280;66942;52.138;5.216;2023-04-01T08:09:22;99609.0;;;15.95;63.55
64019;BME280;66942;52.138;5.216;2023-04-01T08:11:13;99614.0;;;16.02;63.71
64019;BME280;66942;52.138;5.216;2023-04-01T08:13:05;99617.0;;;16.2;63.11
64019;BME280;66942;52.138;5.216;2023-04-01T08:16:35;99619.0;;;16.31;62.93
64019;BME280;66942;52.138;5.216;2023-04-01T08:18:22;99618.0;;;15.97;63.52
64019;BME280;66942;52.138;5.216;2023-04-01T08:20:17;99627.0;;;16.18;63.27
64019;BME280;66942;52.138;5.216;2023-04-01T08:21:58;99631.0;;;16.25;63.13
64019;BME280;66942;52.138;5.216;2023-04-01T08:23:41;99635.0;;;16.25;63.29
64019;BME280;66942;52.138;5.216;2023-04-01T08:25:22;99641.0;;;16.32;63.18
64019;BME280;66942;52.138;5.216;2023-04-01T08:28:50;99637.0;;;16.29;62.67
64019;BME280;66942;52.138;5.216;2023-04-01T08:30:35;99645.0;;;16.37;62.55
64019;BME280;66942;52.138;5.216;2023-04-01T08:32:20;99645.0;;;16.48;62.22
64019;BME280;66942;52.138;5.216;2023-04-01T08:34:00;99649.0;;;16.12;63.22
64019;BME280;66942;52.138;5.216;2023-04-01T08:37:28;99653.0;;;16.38;62.75
64019;BME280;66942;52.138;5.216;2023-04-01T08:39:10;99653.0;;;16.34;62.72
64019;BME280;66942;52.138;5.216;2023-04-01T08:41:34;99662.0;;;16.2;62.7
64019;BME280;66942;52.138;5.216;2023-04-01T08:44:58;99663.0;;;16.38;62.34
64019;BME280;66942;52.138;5.216;2023-04-01T08:47:44;99667.0;;;16.45;62.21
64019;BME280;66942;52.138;5.216;2023-04-01T08:51:18;99669.0;;;16.34;62.95
64019;BME280;66942;52.138;5.216;2023-04-01T08:54:20;99672.0;;;16.14;63.24
64019;BME280;66942;52.138;5.216;2023-04-01T08:57:36;99680.0;;;16.62;62.01
64019;BME280;66942;52.138;5.216;2023-04-01T08:59:30;99681.0;;;16.55;62.2
64019;BME280;66942;52.138;5.216;2023-04-01T09:01:39;99685.0;;;16.61;62.36
64019;BME280;66942;52.138;5.216;2023-04-01T09:04:50;99686.0;;;16.45;62.96
64019;BME280;66942;52.138;5.216;2023-04-01T09:06:39;99689.0;;;16.68;62.38
64019;BME280;66942;52.138;5.216;2023-04-01T09:08:33;99689.0;;;16.7;62.31
64019;BME280;66942;52.138;5.216;2023-04-01T09:10:31;99697.0;;;16.71;61.95
64019;BME280;66942;52.138;5.216;2023-04-01T09:13:48;99694.0;;;16.57;62.49
64019;BME280;66942;52.138;5.216;2023-04-01T09:15:37;99696.0;;;16.62;62.07
64019;BME280;66942;52.138;5.216;2023-04-01T09:18:56;99701.0;;;16.63;62.11
64019;BME280;66942;52.138;5.216;2023-04-01T09:21:51;99701.0;;;16.77;61.82
64019;BME280;66942;52.138;5.216;2023-04-01T09:24:26;99705.0;;;16.5;62.13
64019;BME280;66942;52.138;5.216;2023-04-01T09:26:16;99705.0;;;16.52;62.53
64019;BME280;66942;52.138;5.216;2023-04-01T09:28:09;99710.0;;;16.61;62.62
64019;BME280;66942;52.138;5.216;2023-04-01T09:32:33;99715.0;;;16.46;62.89
64019;BME280;66942;52.138;5.216;2023-04-01T09:36:03;99724.0;;;16.38;63.12
64019;BME280;66942;52.138;5.216;2023-04-01T09:37:52;99722.0;;;16.29;63.27
64019;BME280;66942;52.138;5.216;2023-04-01T09:39:37;99730.0;;;16.62;62.54
64019;BME280;66942;52.138;5.216;2023-04-01T09:41:27;99727.0;;;16.45;62.9
64019;BME280;66942;52.138;5.216;2023-04-01T09:43:19;99724.0;;;16.52;62.72
64019;BME280;66942;52.138;5.216;2023-04-01T09:45:09;99734.0;;;16.5;62.97
64019;BME280;66942;52.138;5.216;2023-04-01T09:47:04;99736.0;;;16.65;62.39
64019;BME280;66942;52.138;5.216;2023-04-01T09:52:20;99742.0;;;16.72;62.93
64019;BME280;66942;52.138;5.216;2023-04-01T09:54:13;99747.0;;;16.36;62.9
64019;BME280;66942;52.138;5.216;2023-04-01T09:57:29;99742.0;;;16.73;62.37
64019;BME280;66942;52.138;5.216;2023-04-01T09:59:24;99757.0;;;16.53;62.83
64019;BME280;66942;52.138;5.216;2023-04-01T10:01:34;99756.0;;;15.99;63.72
64019;BME280;66942;52.138;5.216;2023-04-01T10:07:39;99760.0;;;16.53;62.01
64019;BME280;66942;52.138;5.216;2023-04-01T10:13:46;99761.0;;;17.02;62.11
64019;BME280;66942;52.138;5.216;2023-04-01T10:16:54;99770.0;;;17.13;62.29
64019;BME280;66942;52.138;5.216;2023-04-01T10:20:35;99774.0;;;17.38;61.72
64019;BME280;66942;52.138;5.216;2023-04-01T10:22:50;99774.0;;;17.31;61.64
64019;BME280;66942;52.138;5.216;2023-04-01T10:26:21;99780.0;;;17.5;61.37
64019;BME280;66942;52.138;5.216;2023-04-01T10:29:43;99784.0;;;17.31;60.77
64019;BME280;66942;52.138;5.216;2023-04-01T10:33:03;99781.0;;;17.45;61.48
64019;BME280;66942;52.138;5.216;2023-04-01T10:36:47;99784.0;;;17.66;60.58
64019;BME280;66942;52.138;5.216;2023-04-01T10:38:55;99785.0;;;17.43;60.76
64019;BME280;66942;52.138;5.216;2023-04-01T10:46:56;99786.0;;;17.27;61.79
64019;BME280;66942;52.138;5.216;2023-04-01T10:49:29;99791.0;;;17.82;61.54
64019;BME280;66942;52.138;5.216;2023-04-01T10:52:10;99797.0;;;18.07;60.83
64019;BME280;66942;52.138;5.216;2023-04-01T10:57:13;99801.0;;;17.14;60.85
64019;BME280;66942;52.138;5.216;2023-04-01T11:00:17;99805.0;;;17.86;61.21
64019;BME280;66942;52.138;5.216;2023-04-01T11:05:06;99803.0;;;17.78;60.76
64019;BME280;66942;52.138;5.216;2023-04-01T11:07:22;99803.0;;;18.12;60.69
64019;BME280;66942;52.138;5.216;2023-04-01T11:11:17;99808.0;;;18.37;60.7
64019;BME280;66942;52.138;5.216;2023-04-01T11:13:30;99810.0;;;18.68;59.63
64019;BME280;66942;52.138;5.216;2023-04-01T11:15:41;99813.0;;;18.34;58.33
64019;BME280;66942;52.138;5.216;2023-04-01T11:19:43;99808.0;;;18.18;59.3
64019;BME280;66942;52.138;5.216;2023-04-01T11:20:28;99808.0;;;18.18;59.3
64019;BME280;66942;52.138;5.216;2023-04-01T11:21:28;99821.0;;;18.11;59.78
64019;BME280;66942;52.138;5.216;2023-04-01T11:22:31;99821.0;;;18.11;59.78
64019;BME280;66942;52.138;5.216;2023-04-01T11:23:22;99822.0;;;18.21;59.81
64019;BME280;66942;52.138;5.216;2023-04-01T11:25:38;99826.0;;;17.78;59.33
64019;BME280;66942;52.138;5.216;2023-04-01T11:28:07;99828.0;;;18.22;60.08
64019;BME280;66942;52.138;5.216;2023-04-01T11:30:20;99831.0;;;17.73;59.87
64019;BME280;66942;52.138;5.216;2023-04-01T11:32:12;99837.0;;;17.93;60.45
64019;BME280;66942;52.138;5.216;2023-04-01T11:34:01;99836.0;;;17.82;59.7
64019;BME280;66942;52.138;5.216;2023-04-01T11:35:52;99840.0;;;18.04;60.19
64019;BME280;66942;52.138;5.216;2023-04-01T11:38:10;99845.0;;;17.89;58.58
64019;BME280;66942;52.138;5.216;2023-04-01T11:39:59;99845.0;;;18.04;59.78
64019;BME280;66942;52.138;5.216;2023-04-01T11:43:34;99850.0;;;18.41;59.97
64019;BME280;66942;52.138;5.216;2023-04-01T11:45:24;99852.0;;;18.2;60.7
64019;BME280;66942;52.138;5.216;2023-04-01T11:47:21;99851.0;;;18.5;59.26
64019;BME280;66942;52.138;5.216;2023-04-01T11:49:43;99855.0;;;18.64;58.32
64019;BME280;66942;52.138;5.216;2023-04-01T11:52:23;99858.0;;;18.41;59.47
64019;BME280;66942;52.138;5.216;2023-04-01T11:54:07;99861.0;;;18.23;58.31
64019;BME280;66942;52.138;5.216;2023-04-01T11:55:59;99858.0;;;18.34;58.32
64019;BME280;66942;52.138;5.216;2023-04-01T11:57:55;99864.0;;;18.2;58.21
64019;BME280;66942;52.138;5.216;2023-04-01T11:59:52;99866.0;;;18.13;58.88
64019;BME280;66942;52.138;5.216;2023-04-01T12:01:48;99865.0;;;18.2;59.16
64019;BME280;66942;52.138;5.216;2023-04-01T12:03:42;99869.0;;;18.21;58.39
64019;BME280;66942;52.138;5.216;2023-04-01T12:06:03;99876.0;;;18.11;58.5